createdAt,value
2018-11-14T00:03:18.472Z,26.54
2018-11-14T00:09:13.443Z,19.7
2018-11-14T00:15:08.442Z,15.61
2018-11-14T00:21:03.458Z,15.79
2018-11-14T00:26:58.446Z,15.42
2018-11-14T00:32:53.471Z,16.15
2018-11-14T00:38:48.472Z,13.96
2018-11-14T00:44:43.494Z,14.29
2018-11-14T00:50:38.500Z,13.73
2018-11-14T00:56:33.459Z,12.81
2018-11-14T01:02:28.495Z,13.42
2018-11-14T01:08:23.471Z,12.6
2018-11-14T01:14:18.578Z,12.9
2018-11-14T01:20:13.498Z,14.23
2018-11-14T01:26:08.483Z,11.63
2018-11-14T01:32:03.538Z,11.71
2018-11-14T01:37:58.506Z,11.98
2018-11-14T01:43:53.488Z,11.07
2018-11-14T01:49:48.525Z,11.96
2018-11-14T01:55:43.499Z,11.4
2018-11-14T02:01:38.515Z,11.68
2018-11-14T02:07:33.527Z,9.39
2018-11-14T02:13:28.524Z,10.73
2018-11-14T02:19:23.567Z,10.47
2018-11-14T02:25:18.551Z,9.69
2018-11-14T02:31:13.539Z,9.38
2018-11-14T02:37:08.569Z,9.88
2018-11-14T02:43:03.557Z,9.04
2018-11-14T02:48:58.529Z,10.1
2018-11-14T02:54:53.528Z,10.06
2018-11-14T03:00:48.535Z,9.25
2018-11-14T03:06:43.544Z,10.49
2018-11-14T03:12:38.715Z,10.65
2018-11-14T03:18:33.551Z,9.88
2018-11-14T03:24:28.600Z,10.06
2018-11-14T03:30:23.576Z,10.49
2018-11-14T03:36:18.559Z,10.04
2018-11-14T03:42:13.583Z,10.57
2018-11-14T03:48:08.631Z,9.94
2018-11-14T03:54:03.616Z,10.58
2018-11-14T03:59:58.571Z,9.62
2018-11-14T04:05:53.570Z,10.9
2018-11-14T04:11:48.624Z,9.34
2018-11-14T04:17:43.595Z,10.26
2018-11-14T04:23:38.572Z,10.74
2018-11-14T04:29:33.585Z,10.25
2018-11-14T04:35:28.587Z,11.22
2018-11-14T04:41:23.683Z,10.18
2018-11-14T04:47:18.668Z,11.09
2018-11-14T04:53:13.649Z,11.27
2018-11-14T04:59:08.613Z,12.01
2018-11-14T05:05:03.674Z,12.22
2018-11-14T05:10:58.600Z,13.17
2018-11-14T05:16:53.636Z,13.05
2018-11-14T05:22:48.639Z,11.78
2018-11-14T05:28:43.636Z,12.42
2018-11-14T05:34:38.639Z,11.82
2018-11-14T05:40:33.619Z,11.08
2018-11-14T05:46:28.727Z,10.29
2018-11-14T05:52:23.658Z,10
2018-11-14T05:58:18.634Z,10.34
2018-11-14T06:04:13.672Z,11.05
2018-11-14T06:10:08.643Z,11.32
2018-11-14T06:16:03.672Z,10.7
2018-11-14T06:21:58.763Z,11.08
2018-11-14T06:27:53.683Z,10.69
2018-11-14T06:33:48.672Z,10.9
2018-11-14T06:39:43.673Z,10.83
2018-11-14T06:45:38.677Z,11.7
2018-11-14T06:51:33.677Z,12.37
2018-11-14T06:57:28.741Z,11.77
2018-11-14T07:03:23.727Z,11.91
2018-11-14T07:09:18.723Z,14.24
2018-11-14T07:15:13.683Z,12.26
2018-11-14T07:21:08.686Z,12.55
2018-11-14T07:27:03.676Z,15.64
2018-11-14T07:32:58.698Z,13.96
2018-11-14T07:38:53.701Z,12.64
2018-11-14T07:44:48.698Z,13.76
2018-11-14T07:50:43.728Z,12.82
2018-11-14T07:56:38.705Z,12.27
2018-11-14T08:02:33.708Z,13.1
2018-11-14T08:08:28.850Z,11.01
2018-11-14T08:14:23.720Z,11.38
2018-11-14T08:20:18.731Z,11.08
2018-11-14T08:26:13.733Z,11.58
2018-11-14T08:32:08.802Z,11.78
2018-11-14T08:38:03.750Z,12.06
2018-11-14T08:43:58.724Z,12.34
2018-11-14T08:49:53.741Z,12.13
2018-11-14T08:55:48.766Z,12.06
2018-11-14T09:01:43.739Z,13.03
2018-11-14T09:07:38.819Z,12.23
2018-11-14T09:13:33.785Z,12.46
2018-11-14T09:19:28.747Z,12.07
2018-11-14T09:25:23.748Z,12.88
2018-11-14T09:31:18.787Z,12.11
2018-11-14T09:37:13.796Z,12.4
2018-11-14T09:43:08.804Z,12.38
2018-11-14T09:49:03.832Z,12.5
2018-11-14T09:54:58.798Z,12.61
2018-11-14T10:00:53.826Z,12.43
2018-11-14T10:06:48.792Z,12.65
2018-11-14T10:12:43.799Z,11.46
2018-11-14T10:18:38.806Z,12.87
2018-11-14T10:24:33.795Z,11.7
2018-11-14T10:30:28.839Z,12.87
2018-11-14T10:36:23.798Z,11.6
2018-11-14T10:42:18.808Z,12.74
2018-11-14T10:48:13.829Z,11.48
2018-11-14T10:54:08.833Z,12.22
2018-11-14T11:00:03.816Z,11.69
2018-11-14T11:05:58.815Z,13.41
2018-11-14T11:11:53.821Z,13.33
2018-11-14T11:17:48.861Z,13.9
2018-11-14T11:23:43.835Z,14.06
2018-11-14T11:29:38.894Z,13.23
2018-11-14T11:35:33.878Z,12.82
2018-11-14T11:41:28.845Z,13.17
2018-11-14T11:47:23.861Z,13.33
2018-11-14T11:53:18.855Z,12.39
2018-11-14T11:59:13.885Z,13.29
2018-11-14T12:05:08.915Z,13.33
2018-11-14T12:11:03.870Z,12.72
2018-11-14T12:16:58.869Z,13.53
2018-11-14T12:22:53.900Z,13.37
2018-11-14T12:28:48.909Z,12.83
2018-11-14T12:34:43.959Z,11.65
2018-11-14T12:40:38.869Z,11.41
2018-11-14T12:46:33.900Z,12.37
2018-11-14T12:52:28.905Z,12.18
2018-11-14T12:58:23.910Z,11.64
2018-11-14T13:04:18.906Z,10.43
2018-11-14T13:10:13.939Z,11.42
2018-11-14T13:16:08.896Z,11.51
2018-11-14T13:22:03.897Z,11.2
2018-11-14T13:27:58.978Z,11.87
2018-11-14T13:33:53.934Z,11.35
2018-11-14T13:39:48.976Z,11.96
2018-11-14T13:45:43.929Z,12.13
2018-11-14T13:51:38.920Z,12.03
2018-11-14T13:57:33.924Z,12.5
2018-11-14T14:03:28.924Z,13.66
2018-11-14T14:09:23.989Z,12.18
2018-11-14T14:15:18.941Z,12.96
2018-11-14T14:21:13.958Z,11.88
2018-11-14T14:27:08.948Z,11.46
2018-11-14T14:33:03.967Z,12.07
2018-11-14T14:38:58.932Z,11.39
2018-11-14T14:44:54.002Z,11.39
2018-11-14T14:50:48.953Z,12.2
2018-11-14T14:56:43.971Z,11.77
2018-11-14T15:02:38.996Z,11.85
2018-11-14T15:08:33.977Z,12.49
2018-11-14T15:14:28.988Z,13.09
2018-11-14T15:20:23.970Z,13.73
2018-11-14T15:26:18.997Z,13.94
2018-11-14T15:32:14.030Z,13.84
2018-11-14T15:38:08.987Z,15.64
2018-11-14T15:44:04.032Z,14.02
2018-11-14T15:49:59.048Z,15.34
2018-11-14T15:55:54.002Z,15.88
2018-11-14T16:01:49.026Z,15.79
2018-11-14T16:07:44.052Z,16.44
2018-11-14T16:13:39.020Z,18.69
2018-11-14T16:19:34.002Z,15.38
2018-11-14T16:25:29.027Z,14.49
2018-11-14T16:31:24.060Z,15.5
2018-11-14T16:37:19.016Z,16.54
2018-11-14T16:43:14.023Z,16.93
2018-11-14T16:49:09.074Z,16.66
2018-11-14T16:55:04.023Z,16.91
2018-11-14T17:00:59.039Z,14.33
2018-11-14T17:06:54.069Z,13.78
2018-11-14T17:12:49.061Z,14.43
2018-11-14T17:18:44.053Z,14.51
2018-11-14T17:24:39.169Z,13.35
2018-11-14T17:30:34.081Z,13.5
2018-11-14T17:36:29.055Z,12.25
2018-11-14T17:42:24.209Z,12.45
2018-11-14T17:48:19.086Z,13.49
2018-11-14T17:54:14.073Z,13.36
2018-11-14T18:00:09.081Z,12.74
2018-11-14T18:06:04.081Z,12.12
2018-11-14T18:11:59.076Z,9.97
2018-11-14T18:17:54.095Z,11.33
2018-11-14T18:23:49.080Z,10.73
2018-11-14T18:29:44.078Z,11.17
2018-11-14T18:35:39.115Z,11.27
2018-11-14T18:41:34.244Z,12.21
2018-11-14T18:47:29.112Z,10.91
2018-11-14T18:53:24.115Z,11.21
2018-11-14T18:59:19.108Z,11.88
2018-11-14T19:05:14.173Z,11.79
2018-11-14T19:11:09.143Z,10.8
2018-11-14T19:17:04.122Z,11.72
2018-11-14T19:22:59.112Z,11.19
2018-11-14T19:28:54.134Z,12.17
2018-11-14T19:34:49.135Z,13.24
2018-11-14T19:40:44.183Z,13.2
2018-11-14T19:46:39.177Z,12.06
2018-11-14T19:52:34.178Z,11.76
2018-11-14T19:58:29.135Z,11.42
2018-11-14T20:04:24.172Z,11.37
2018-11-14T20:10:19.239Z,12.48
2018-11-14T20:16:14.140Z,13.33
2018-11-14T20:22:09.176Z,13.71
2018-11-14T20:28:04.162Z,14.8
2018-11-14T20:33:59.185Z,14.15
2018-11-14T20:39:54.196Z,14.46
2018-11-14T20:45:49.205Z,14.25
2018-11-14T20:51:44.159Z,14.73
2018-11-14T20:57:39.164Z,15.93
2018-11-14T21:03:34.209Z,14.68
2018-11-14T21:09:29.203Z,16.88
2018-11-14T21:15:24.244Z,17.5
2018-11-14T21:21:19.192Z,17.83
2018-11-14T21:27:14.263Z,17.82
2018-11-14T21:33:09.206Z,16.09
2018-11-14T21:39:04.215Z,16.55
2018-11-14T21:44:59.279Z,16.49
2018-11-14T21:50:54.211Z,12.4
2018-11-14T21:56:49.213Z,15.96
2018-11-14T22:02:44.230Z,15.48
2018-11-14T22:08:39.238Z,16.48
2018-11-14T22:14:34.256Z,14.17
2018-11-14T22:20:29.248Z,13.24
2018-11-14T22:26:24.225Z,15.48
2018-11-14T22:32:19.283Z,17.11
2018-11-14T22:38:14.276Z,17.22
2018-11-14T22:44:09.247Z,13.89
2018-11-14T22:50:04.274Z,14.2
2018-11-14T22:55:59.293Z,14.71
2018-11-14T23:01:54.247Z,16.01
2018-11-14T23:07:49.264Z,16.6
2018-11-14T23:13:44.306Z,14.55
2018-11-14T23:19:39.263Z,16.66
2018-11-14T23:25:34.278Z,16.39
2018-11-14T23:31:29.321Z,14.66
2018-11-14T23:37:24.298Z,16.24
2018-11-14T23:43:19.283Z,15.02
2018-11-14T23:49:14.316Z,15.99
2018-11-14T23:55:09.355Z,14.19
